Time;durP1;ratioP1;P1;durP2;ratioP2;P2;SDS_P1;SDS_P2;PMS_P1;PMS_P2;Temp;Humidity;BMP_temperature;BMP_pressure;BME280_temperature;BME280_humidity;BME280_pressure;Samples;Min_cycle;Max_cycle;Signal;HPM_P1;HPM_P2
2023/07/26 00:01:11;;;;;;;2.07;1.70;;;;;;;16.45;70.63;98311.78;5115654;27;41027;-76
2023/07/26 00:03:38;;;;;;;1.67;1.50;;;;;;;16.53;70.32;98335.97;5134300;27;42671;-76
2023/07/26 00:06:06;;;;;;;3.23;1.70;;;;;;;16.22;70.05;98283.72;5115530;27;42035;-76
2023/07/26 00:08:33;;;;;;;1.83;1.50;;;;;;;16.53;70.44;98343.97;5133038;27;40040;-75
2023/07/26 00:11:04;;;;;;;2.20;1.57;;;;;;;16.54;69.91;98340.31;5114286;27;41076;-76
2023/07/26 00:13:31;;;;;;;3.60;1.60;;;;;;;16.54;69.75;98332.31;5132196;27;43477;-75
2023/07/26 00:15:59;;;;;;;2.40;1.87;;;;;;;16.53;70.04;98339.47;5132761;27;42234;-76
2023/07/26 00:18:26;;;;;;;2.30;1.70;;;;;;;16.53;69.65;98343.97;5132391;27;40184;-76
2023/07/26 00:20:54;;;;;;;2.27;1.47;;;;;;;16.52;69.38;98353.00;5114107;27;41685;-76
2023/07/26 00:23:21;;;;;;;3.63;1.53;;;;;;;16.52;69.53;98350.31;5131635;27;41683;-77
2023/07/26 00:25:49;;;;;;;2.23;1.73;;;;;;;16.52;69.23;98355.66;5131317;27;43001;-76
2023/07/26 00:28:18;;;;;;;2.50;1.43;;;;;;;16.48;69.13;98343.56;5131696;27;40669;-76
2023/07/26 00:30:47;;;;;;;3.00;1.70;;;;;;;16.51;69.17;98353.97;5132746;27;42468;-76
2023/07/26 00:33:15;;;;;;;2.40;1.70;;;;;;;16.50;69.28;98353.13;5131350;27;41832;-75
2023/07/26 00:35:44;;;;;;;2.33;1.37;;;;;;;16.48;69.52;98354.25;5131261;27;41258;-76
2023/07/26 00:38:13;;;;;;;2.80;1.77;;;;;;;16.40;69.19;98348.81;5114331;27;40546;-75
2023/07/26 00:40:40;;;;;;;2.23;1.70;;;;;;;16.38;69.46;98364.97;5131776;27;42881;-76
2023/07/26 00:43:08;;;;;;;4.03;1.60;;;;;;;16.35;69.21;98364.41;5132328;27;43897;-76
2023/07/26 00:45:40;;;;;;;2.50;1.60;;;;;;;16.31;69.23;98349.69;5131968;27;42327;-75
2023/07/26 00:48:08;;;;;;;2.13;1.60;;;;;;;16.32;69.04;98356.72;5115215;27;39849;-75
2023/07/26 00:50:37;;;;;;;2.40;1.40;;;;;;;16.31;69.28;98363.03;5131761;27;41823;-76
2023/07/26 00:53:05;;;;;;;3.57;1.80;;;;;;;16.22;69.29;98347.84;5132053;27;43033;-76
2023/07/26 00:55:33;;;;;;;3.23;1.80;;;;;;;16.28;69.10;98368.66;5133068;27;43192;-76
2023/07/26 00:58:01;;;;;;;3.00;1.43;;;;;;;16.12;69.34;98343.38;5132173;27;39914;-75
2023/07/26 01:00:29;;;;;;;2.83;1.50;;;;;;;16.13;69.28;98360.25;5114366;27;42967;-74
2023/07/26 01:02:58;;;;;;;1.93;1.67;;;;;;;16.11;69.09;98363.06;5132082;27;41786;-74
2023/07/26 01:05:31;;;;;;;2.13;1.80;;;;;;;16.15;69.58;98375.16;5131581;27;42216;-74
2023/07/26 01:08:07;;;;;;;2.87;1.80;;;;;;;16.15;69.61;98380.50;5114876;27;39632;-74
2023/07/26 01:10:39;;;;;;;3.67;1.90;;;;;;;16.14;69.73;98381.47;5129234;27;40800;-74
2023/07/26 01:13:13;;;;;;;2.23;1.70;;;;;;;16.06;69.91;98365.31;5128773;27;42665;-74
2023/07/26 01:15:44;;;;;;;3.03;1.70;;;;;;;16.05;69.59;98368.97;5131712;27;42245;-73
2023/07/26 01:18:15;;;;;;;2.60;1.37;;;;;;;16.08;69.80;98378.50;5127796;27;39722;-74
2023/07/26 01:20:43;;;;;;;1.63;1.50;;;;;;;16.05;69.68;98379.66;5113356;27;40750;-74
2023/07/26 01:23:12;;;;;;;1.70;1.60;;;;;;;16.02;69.79;98385.28;5130865;27;42789;-74
2023/07/26 01:25:40;;;;;;;1.80;1.57;;;;;;;16.00;69.56;98394.41;5131523;27;43236;-74
2023/07/26 01:28:07;;;;;;;2.70;1.47;;;;;;;15.97;69.57;98387.53;5130510;27;38837;-74
2023/07/26 01:30:36;;;;;;;2.37;1.30;;;;;;;15.93;69.58;98391.47;5130501;27;42714;-74
2023/07/26 01:33:07;;;;;;;2.63;1.60;;;;;;;15.90;69.90;98390.91;5113413;27;41807;-74
2023/07/26 01:35:36;;;;;;;1.67;1.20;;;;;;;15.88;69.67;98396.38;5130141;27;42092;-74
2023/07/26 01:38:05;;;;;;;1.57;1.47;;;;;;;15.86;69.43;98398.34;5113285;27;40614;-74
2023/07/26 01:40:35;;;;;;;3.40;1.80;;;;;;;15.84;69.60;98397.63;5130634;27;42678;-74
2023/07/26 01:43:04;;;;;;;2.10;1.50;;;;;;;15.82;69.58;98399.63;5131583;27;42691;-74
2023/07/26 01:45:31;;;;;;;2.60;1.40;;;;;;;15.82;69.88;98401.44;5113948;27;42623;-74
2023/07/26 01:47:59;;;;;;;4.03;1.40;;;;;;;15.80;69.65;98405.09;5114281;27;38810;-74
2023/07/26 01:50:26;;;;;;;2.70;1.67;;;;;;;15.79;70.12;98406.09;5130827;27;41651;-74
2023/07/26 01:52:54;;;;;;;4.00;1.77;;;;;;;15.79;69.79;98402.56;5132473;27;42817;-74
2023/07/26 01:55:23;;;;;;;2.17;1.90;;;;;;;15.79;70.07;98407.91;5113839;27;41500;-76
2023/07/26 01:57:53;;;;;;;2.50;1.60;;;;;;;15.78;70.13;98406.22;5131153;27;40111;-75
2023/07/26 02:00:21;;;;;;;2.93;1.83;;;;;;;15.72;69.82;98393.41;5113638;27;41768;-75
2023/07/26 02:02:48;;;;;;;4.03;1.77;;;;;;;15.80;69.99;98401.59;5132487;27;42893;-74
2023/07/26 02:05:16;;;;;;;2.00;1.63;;;;;;;15.81;70.13;98413.97;5131244;27;43196;-75
2023/07/26 02:07:44;;;;;;;2.87;1.97;;;;;;;15.82;70.08;98405.78;5131243;27;41029;-75
2023/07/26 02:10:12;;;;;;;3.73;1.67;;;;;;;15.75;70.05;98399.31;5112141;27;40660;-75
2023/07/26 02:12:39;;;;;;;2.43;1.60;;;;;;;15.80;69.80;98407.78;5112513;27;41481;-75
2023/07/26 02:15:11;;;;;;;2.87;1.90;;;;;;;15.81;69.72;98419.31;5112543;27;41452;-75
2023/07/26 02:17:39;;;;;;;2.70;1.80;;;;;;;15.71;69.68;98405.06;5130024;27;40168;-74
2023/07/26 02:20:08;;;;;;;2.23;1.80;;;;;;;15.82;69.86;98422.81;5130309;27;40848;-75
2023/07/26 02:22:35;;;;;;;1.53;1.43;;;;;;;15.81;69.57;98424.63;5130052;27;43263;-75
2023/07/26 02:25:03;;;;;;;2.87;1.50;;;;;;;15.82;69.11;98431.66;5129562;27;42323;-75
2023/07/26 02:27:31;;;;;;;2.00;1.27;;;;;;;15.81;68.98;98435.31;5129835;27;40963;-74
2023/07/26 02:29:59;;;;;;;2.80;1.80;;;;;;;15.80;69.04;98430.97;5129793;27;41773;-75
2023/07/26 02:32:29;;;;;;;5.10;1.70;;;;;;;15.80;69.41;98431.81;5129773;27;43231;-75
2023/07/26 02:34:57;;;;;;;2.17;1.83;;;;;;;15.80;69.58;98428.28;5129763;27;42141;-75
2023/07/26 02:37:25;;;;;;;3.40;1.50;;;;;;;15.79;69.55;98434.63;5131067;27;40108;-75
2023/07/26 02:39:53;;;;;;;2.37;1.70;;;;;;;15.77;69.33;98434.75;5112891;27;41806;-75
2023/07/26 02:42:21;;;;;;;1.70;1.60;;;;;;;15.79;69.46;98447.97;5116929;27;42822;-75
2023/07/26 02:44:49;;;;;;;2.13;1.57;;;;;;;15.53;69.33;98402.22;5134208;27;42352;-74
2023/07/26 02:47:17;;;;;;;3.27;2.10;;;;;;;15.76;69.19;98445.56;5134455;27;40003;-74
2023/07/26 02:49:47;;;;;;;2.23;2.03;;;;;;;15.77;69.42;98444.56;5133799;27;41956;-74
2023/07/26 02:52:14;;;;;;;3.57;1.97;;;;;;;15.75;69.64;98451.88;5134174;27;43028;-75
2023/07/26 02:54:42;;;;;;;2.70;2.40;;;;;;;15.74;69.58;98456.38;5133877;27;42169;-75
2023/07/26 02:57:11;;;;;;;3.40;1.80;;;;;;;15.72;69.88;98458.34;5134952;27;20226;-75
2023/07/26 02:59:38;;;;;;;5.10;2.03;;;;;;;15.70;69.62;98449.59;5116547;27;41692;-75
2023/07/26 03:02:06;;;;;;;1.90;1.60;;;;;;;15.71;69.56;98453.13;5133945;27;42634;-75
2023/07/26 03:04:34;;;;;;;3.53;1.87;;;;;;;15.69;70.15;98450.63;5135049;27;42004;-75
2023/07/26 03:07:03;;;;;;;1.80;1.70;;;;;;;15.70;69.94;98454.13;5116836;27;40029;-75
2023/07/26 03:09:31;;;;;;;3.13;1.73;;;;;;;15.70;69.65;98454.13;5132935;27;41818;-75
2023/07/26 03:11:58;;;;;;;1.30;1.20;;;;;;;15.71;69.72;98461.13;5132119;27;41872;-75
2023/07/26 03:14:26;;;;;;;2.17;1.80;;;;;;;15.71;70.17;98461.13;5115084;27;43656;-75
2023/07/26 03:16:54;;;;;;;2.27;1.60;;;;;;;15.70;69.94;98459.47;5115346;27;41009;-75
2023/07/26 03:19:21;;;;;;;3.23;2.10;;;;;;;15.71;70.05;98464.66;5132683;27;42738;-75
2023/07/26 03:21:49;;;;;;;2.00;1.90;;;;;;;15.71;69.93;98461.13;5134018;27;43786;-75
2023/07/26 03:24:18;;;;;;;4.07;2.00;;;;;;;15.71;70.14;98471.81;5115454;27;41971;-75
2023/07/26 03:26:46;;;;;;;3.00;1.90;;;;;;;15.72;69.93;98473.50;5132561;27;40041;-75
2023/07/26 03:29:14;;;;;;;2.83;2.00;;;;;;;15.70;70.02;98468.31;5132549;27;41784;-75
2023/07/26 03:31:42;;;;;;;9.93;2.30;;;;;;;15.67;70.34;98465.94;5132598;27;43731;-75
2023/07/26 03:34:10;;;;;;;4.00;2.27;;;;;;;15.66;69.91;98466.06;5132161;27;43223;-75
2023/07/26 03:36:38;;;;;;;2.43;1.90;;;;;;;15.70;69.75;98480.84;5115341;27;39211;-74
2023/07/26 03:39:05;;;;;;;3.00;1.90;;;;;;;15.70;70.12;98475.50;5114772;27;41710;-75
2023/07/26 03:41:35;;;;;;;2.07;1.80;;;;;;;15.70;70.24;98480.84;5132874;27;41646;-75
2023/07/26 03:44:02;;;;;;;2.00;1.50;;;;;;;15.70;69.91;98484.31;5116084;27;41153;-75
2023/07/26 03:46:30;;;;;;;2.20;1.90;;;;;;;15.72;69.85;98478.84;5133351;27;39978;-75
2023/07/26 03:48:58;;;;;;;3.27;2.10;;;;;;;15.71;69.75;98482.50;5133336;27;41817;-76
2023/07/26 03:51:25;;;;;;;2.67;2.00;;;;;;;15.72;69.78;98492.19;5133372;27;42807;-75
2023/07/26 03:53:53;;;;;;;2.77;2.00;;;;;;;15.71;69.84;98491.34;5132567;27;42279;-75
2023/07/26 03:56:22;;;;;;;2.53;1.90;;;;;;;15.70;69.73;98481.66;5133226;27;39926;-75
2023/07/26 03:58:51;;;;;;;2.77;2.10;;;;;;;15.72;69.95;98494.88;5133227;27;42144;-75
2023/07/26 04:01:19;;;;;;;3.83;2.37;;;;;;;15.71;69.93;98499.34;5115720;27;42428;-75
2023/07/26 04:03:46;;;;;;;2.87;1.80;;;;;;;15.70;69.85;98492.31;5132788;27;42318;-74
2023/07/26 04:06:14;;;;;;;2.43;2.23;;;;;;;15.69;70.22;98490.66;5134192;27;40968;-74
2023/07/26 04:08:42;;;;;;;2.40;2.17;;;;;;;15.67;69.86;98491.78;5132625;27;41360;-75
2023/07/26 04:11:12;;;;;;;2.77;1.90;;;;;;;15.70;69.76;98502.19;5113547;27;43239;-75
2023/07/26 04:13:39;;;;;;;2.43;2.07;;;;;;;15.73;69.77;98504.56;5114631;27;42307;-75
2023/07/26 04:16:17;;;;;;;2.87;2.10;;;;;;;15.77;69.62;98506.84;5133103;27;40039;-75
2023/07/26 04:18:45;;;;;;;1.93;1.80;;;;;;;15.81;69.68;98515.44;5114283;27;41932;-75
2023/07/26 04:21:14;;;;;;;1.90;1.80;;;;;;;15.85;69.19;98516.81;5133024;27;42755;-75
2023/07/26 04:23:42;;;;;;;2.00;1.80;;;;;;;15.89;69.04;98517.41;5132768;27;43341;-75
2023/07/26 04:26:10;;;;;;;3.33;2.30;;;;;;;15.87;68.91;98514.84;5132727;27;40922;-75
2023/07/26 04:28:38;;;;;;;2.60;1.97;;;;;;;15.89;69.38;98518.25;5131399;27;41678;-75
2023/07/26 04:31:06;;;;;;;2.30;1.97;;;;;;;15.90;68.92;98519.09;5131389;27;43439;-75
2023/07/26 04:33:35;;;;;;;4.03;2.33;;;;;;;15.91;69.35;98529.63;5131492;27;41424;-75
2023/07/26 04:36:03;;;;;;;2.30;2.10;;;;;;;15.92;69.20;98519.81;5132560;27;39992;-75
2023/07/26 04:38:30;;;;;;;2.67;1.93;;;;;;;15.93;69.36;98522.34;5114365;27;41748;-75
2023/07/26 04:40:58;;;;;;;4.33;2.60;;;;;;;15.94;68.85;98526.69;5114113;27;41427;-75
2023/07/26 04:43:25;;;;;;;2.93;2.17;;;;;;;15.96;69.26;98530.06;5133622;27;42324;-75
2023/07/26 04:45:53;;;;;;;3.43;2.80;;;;;;;16.00;69.42;98531.47;5133453;27;40887;-74
2023/07/26 04:48:21;;;;;;;5.17;2.43;;;;;;;16.07;69.05;98531.78;5115004;27;40439;-75
2023/07/26 04:50:51;;;;;;;3.13;2.60;;;;;;;16.10;68.95;98527.00;5131722;27;42925;-74
2023/07/26 04:53:18;;;;;;;3.80;2.67;;;;;;;16.24;68.94;98533.75;5131767;27;41420;-75
2023/07/26 04:55:48;;;;;;;3.50;2.37;;;;;;;16.32;68.41;98530.41;5132114;27;41860;-76
2023/07/26 04:58:15;;;;;;;3.43;2.20;;;;;;;16.36;68.12;98527.28;5133271;27;41734;-76
2023/07/26 05:00:43;;;;;;;3.70;2.37;;;;;;;16.45;68.08;98536.28;5114748;27;43139;-76
2023/07/26 05:03:11;;;;;;;2.00;1.90;;;;;;;16.45;68.26;98541.63;5131682;27;42318;-77
2023/07/26 05:05:40;;;;;;;4.30;2.30;;;;;;;16.47;67.75;98534.31;5114750;27;40190;-76
2023/07/26 05:08:09;;;;;;;2.40;2.10;;;;;;;16.36;67.98;98516.59;5131511;27;41031;-76
2023/07/26 05:10:37;;;;;;;3.07;2.70;;;;;;;16.51;67.92;98541.94;5112379;27;42621;-76
2023/07/26 05:13:04;;;;;;;2.93;2.43;;;;;;;16.58;67.89;98544.88;5113574;27;41000;-76
2023/07/26 05:15:32;;;;;;;4.53;2.70;;;;;;;16.63;67.52;98539.16;5131963;27;40043;-75
2023/07/26 05:18:00;;;;;;;3.83;2.43;;;;;;;16.67;67.59;98541.41;5113407;27;40764;-75
2023/07/26 05:20:27;;;;;;;5.13;2.60;;;;;;;16.67;67.65;98532.53;5130532;27;42127;-76
2023/07/26 05:22:55;;;;;;;3.20;2.60;;;;;;;16.38;67.45;98487.91;5130655;27;43214;-75
2023/07/26 05:25:24;;;;;;;2.90;2.23;;;;;;;16.74;67.46;98539.00;5131764;27;40043;-76
2023/07/26 05:27:54;;;;;;;3.70;2.90;;;;;;;16.80;66.95;98541.97;5130407;27;41740;-76
2023/07/26 05:30:21;;;;;;;4.90;2.70;;;;;;;16.87;67.13;98543.06;5131619;27;42793;-76
2023/07/26 05:32:49;;;;;;;4.87;2.80;;;;;;;17.03;67.50;98545.16;5130358;27;43958;-75
2023/07/26 05:35:17;;;;;;;4.23;2.40;;;;;;;17.14;66.75;98554.84;5130277;27;39974;-76
2023/07/26 05:37:45;;;;;;;3.47;2.70;;;;;;;17.32;66.56;98546.88;5113367;27;41732;-76
2023/07/26 05:40:13;;;;;;;4.03;2.80;;;;;;;17.44;65.67;98541.22;5132229;27;42806;-80
2023/07/26 05:42:42;;;;;;;4.40;2.50;;;;;;;17.71;64.82;98552.97;5114491;27;41746;-77
2023/07/26 05:45:13;;;;;;;2.27;2.00;;;;;;;17.76;64.60;98529.28;5131674;27;39893;-77
2023/07/26 05:48:00;;;;;;;4.70;2.70;;;;;;;18.14;64.03;98569.25;5114959;27;40722;-78
2023/07/26 05:50:28;;;;;;;5.73;2.70;;;;;;;18.21;63.50;98573.00;5131593;27;42684;-78
2023/07/26 05:52:55;;;;;;;2.67;2.47;;;;;;;18.31;63.31;98583.66;5131880;27;42317;-79
2023/07/26 05:55:23;;;;;;;3.57;2.40;;;;;;;18.38;62.94;98571.34;5114393;27;38814;-78
2023/07/26 05:57:52;;;;;;;6.10;2.80;;;;;;;18.46;61.93;98576.78;5131674;27;40453;-80
2023/07/26 06:00:21;;;;;;;3.37;2.47;;;;;;;18.47;61.54;98580.31;5114444;27;42784;-78
2023/07/26 06:02:48;;;;;;;3.30;2.40;;;;;;;18.53;61.64;98587.75;5132213;27;42346;-81
2023/07/26 06:05:16;;;;;;;2.23;1.90;;;;;;;18.57;61.46;98589.97;5132158;27;38971;-80
2023/07/26 06:07:44;;;;;;;6.20;3.53;;;;;;;18.57;61.28;98599.84;5097411;27;40814;-79
2023/07/26 06:10:12;;;;;;;5.17;2.60;;;;;;;18.56;61.47;98603.53;5129535;27;43360;-77
2023/07/26 06:15:25;;;;;;;2.50;2.00;;;;;;;18.31;61.27;98564.88;5129906;27;41160;-79
2023/07/26 06:17:59;;;;;;;3.80;2.33;;;;;;;18.52;61.03;98599.47;5117841;27;40764;-78
2023/07/26 06:20:28;;;;;;;3.10;2.20;;;;;;;18.44;60.92;98583.28;5133901;27;42607;-83
2023/07/26 06:22:56;;;;;;;1.63;1.53;;;;;;;18.51;61.11;98595.97;5134341;27;41957;-82
2023/07/26 06:25:24;;;;;;;4.17;2.47;;;;;;;18.54;61.17;98602.84;5116658;27;40169;-84
2023/07/26 06:27:52;;;;;;;5.33;2.17;;;;;;;18.55;60.69;98601.84;5134332;27;40746;-81
2023/07/26 06:30:20;;;;;;;4.60;2.37;;;;;;;18.58;60.53;98601.56;5133904;27;42762;-79
2023/07/26 06:32:51;;;;;;;3.20;2.33;;;;;;;18.65;61.22;98608.03;5134193;27;41307;-82
2023/07/26 06:35:19;;;;;;;6.87;1.90;;;;;;;18.72;61.19;98603.72;5117308;27;40605;-85
2023/07/26 06:37:47;;;;;;;3.13;2.10;;;;;;;18.76;60.40;98618.53;5116962;27;41405;-78
2023/07/26 06:40:15;;;;;;;3.60;2.23;;;;;;;18.71;59.69;98623.50;5116299;27;41617;-80
2023/07/26 06:42:42;;;;;;;4.93;2.60;;;;;;;18.65;59.96;98618.75;5136154;27;42080;-78
2023/07/26 06:45:11;;;;;;;3.17;2.50;;;;;;;18.51;59.79;98595.13;5117799;27;39832;-83
2023/07/26 06:47:48;;;;;;;3.90;2.37;;;;;;;18.40;60.14;98587.28;5135490;27;40458;-87
2023/07/26 06:50:38;;;;;;;4.03;2.03;;;;;;;18.59;60.34;98619.34;5117914;27;42858;-85
2023/07/26 06:53:06;;;;;;;3.40;2.50;;;;;;;18.47;60.10;98609.81;5117761;27;41716;-84
2023/07/26 06:55:34;;;;;;;3.13;2.30;;;;;;;18.43;60.08;98613.78;5135098;27;41253;-82
2023/07/26 06:58:02;;;;;;;6.77;2.40;;;;;;;18.28;60.07;98600.91;5134693;27;41700;-79
2023/07/26 07:00:30;;;;;;;3.03;2.30;;;;;;;18.36;60.19;98607.34;5135107;27;42683;-78
2023/07/26 07:02:58;;;;;;;3.83;2.50;;;;;;;18.46;60.21;98618.84;5117350;27;41149;-81
2023/07/26 07:05:27;;;;;;;4.63;2.23;;;;;;;18.49;60.61;98618.56;5135955;27;40145;-77
2023/07/26 07:07:57;;;;;;;4.37;2.07;;;;;;;18.50;61.11;98614.88;5135763;27;41749;-81
2023/07/26 07:10:24;;;;;;;4.20;2.63;;;;;;;18.54;60.81;98621.63;5133877;27;43017;-77
2023/07/26 07:12:53;;;;;;;3.73;2.43;;;;;;;18.56;60.85;98625.81;5133266;27;42231;-77
2023/07/26 07:15:21;;;;;;;4.50;2.60;;;;;;;18.58;60.60;98628.38;5107301;27;40176;-79
2023/07/26 07:21:34;;;;;;;4.00;2.50;;;;;;;18.62;59.82;98613.69;5133267;27;43484;-74
2023/07/26 07:24:04;;;;;;;5.77;3.03;;;;;;;18.83;59.81;98632.16;5115329;27;41236;-78
2023/07/26 07:26:32;;;;;;;3.10;2.40;;;;;;;18.92;59.61;98625.88;5133563;27;40958;-75
2023/07/26 07:28:59;;;;;;;3.87;2.30;;;;;;;19.14;58.85;98646.03;5132441;27;41814;-73
2023/07/26 07:31:29;;;;;;;2.77;2.20;;;;;;;19.29;58.23;98639.09;5133673;27;43680;-76
2023/07/26 07:33:56;;;;;;;4.83;2.20;;;;;;;19.53;57.89;98622.38;5115022;27;41118;-75
2023/07/26 07:36:24;;;;;;;6.50;2.87;;;;;;;19.93;56.73;98640.56;5132213;27;39019;-75
2023/07/26 07:38:52;;;;;;;3.47;2.00;;;;;;;20.28;56.38;98642.22;5133987;27;41711;-77
2023/07/26 07:41:21;;;;;;;3.73;2.30;;;;;;;20.55;55.62;98646.53;5132884;27;42689;-73
2023/07/26 07:43:49;;;;;;;2.27;2.10;;;;;;;20.77;55.51;98643.25;5116177;27;41133;-74
2023/07/26 07:46:17;;;;;;;3.83;2.23;;;;;;;21.03;54.67;98659.25;5115970;27;38885;-75
2023/07/26 07:48:51;;;;;;;3.20;2.10;;;;;;;21.31;54.30;98657.13;5116049;27;41978;-77
2023/07/26 07:51:18;;;;;;;2.53;2.23;;;;;;;21.75;53.89;98662.97;5131720;27;42055;-74
2023/07/26 07:53:48;;;;;;;3.00;1.63;;;;;;;22.04;52.39;98667.81;5133454;27;42185;-77
2023/07/26 07:56:15;;;;;;;3.43;2.07;;;;;;;22.01;52.00;98666.28;5131523;27;38921;-74
2023/07/26 07:58:45;;;;;;;4.17;1.73;;;;;;;21.93;51.98;98670.84;5132192;27;42346;-74
2023/07/26 08:01:13;;;;;;;3.43;2.10;;;;;;;21.92;51.75;98670.00;5133315;27;43013;-74
2023/07/26 08:03:40;;;;;;;2.97;1.97;;;;;;;22.06;51.66;98669.31;5133054;27;42329;-73
2023/07/26 08:06:09;;;;;;;3.70;2.17;;;;;;;22.21;51.52;98661.38;5115430;27;39282;-74
2023/07/26 08:08:36;;;;;;;2.87;2.27;;;;;;;22.43;50.83;98665.16;5132672;27;40692;-73
2023/07/26 08:11:04;;;;;;;4.40;2.10;;;;;;;22.38;50.80;98668.34;5113154;27;41806;-73
2023/07/26 08:13:32;;;;;;;3.40;2.17;;;;;;;22.30;50.93;98654.91;5131546;27;42323;-74
2023/07/26 08:19:33;;;;;;;4.33;2.60;;;;;;;21.62;51.12;98596.13;5112538;27;40696;-73
2023/07/26 08:22:00;;;;;;;4.03;2.50;;;;;;;21.64;51.56;98652.53;5131471;27;43777;-74
2023/07/26 08:24:28;;;;;;;3.63;2.33;;;;;;;21.33;52.84;98663.19;5131705;27;42910;-73
2023/07/26 08:26:55;;;;;;;4.70;2.93;;;;;;;20.62;56.93;98643.06;5131599;27;40949;-77
2023/07/26 08:29:23;;;;;;;4.10;2.87;;;;;;;20.11;59.13;98630.56;5132181;27;40510;-82
2023/07/26 08:32:27;;;;;;;3.47;2.27;;;;;;;19.78;60.18;98634.91;5114627;27;41765;-87
2023/07/26 08:34:55;;;;;;;2.60;1.90;;;;;;;19.29;58.03;98631.03;5114794;27;42211;-80
2023/07/26 08:37:22;;;;;;;2.27;2.07;;;;;;;19.28;59.03;98656.22;5114964;27;38691;-81
2023/07/26 08:39:50;;;;;;;2.73;2.00;;;;;;;19.24;60.13;98652.16;5131653;27;42708;-82
2023/07/26 08:42:17;;;;;;;3.17;2.17;;;;;;;19.26;61.46;98636.75;5116071;27;41643;-82
2023/07/26 08:44:50;;;;;;;3.47;2.17;;;;;;;19.29;59.55;98644.47;5116098;27;41407;-86
2023/07/26 08:47:21;;;;;;;3.93;2.17;;;;;;;20.01;58.63;98646.84;5116262;27;39028;-80
2023/07/26 08:49:51;;;;;;;3.13;1.90;;;;;;;21.72;55.74;98666.84;5132848;27;41739;-79
2023/07/26 08:52:19;;;;;;;3.77;1.70;;;;;;;22.72;51.25;98705.84;5132389;27;41771;-81
2023/07/26 08:54:48;;;;;;;2.83;1.43;;;;;;;22.46;50.43;98691.78;5115702;27;41613;-78
2023/07/26 08:57:18;;;;;;;1.50;1.30;;;;;;;21.31;51.35;98668.72;5133891;27;40846;-79
2023/07/26 08:59:48;;;;;;;1.67;1.03;;;;;;;20.65;53.03;98703.75;5133133;27;40837;-88
2023/07/26 09:02:17;;;;;;;1.27;1.10;;;;;;;20.10;54.23;98682.66;5133496;27;44631;-83
2023/07/26 09:04:47;;;;;;;1.33;1.10;;;;;;;19.72;55.22;98700.06;5115523;27;41331;-85
2023/07/26 09:07:24;;;;;;;1.30;1.13;;;;;;;19.33;55.76;98705.78;5115627;27;40824;-83
2023/07/26 09:09:52;;;;;;;1.57;1.47;;;;;;;19.04;57.37;98701.66;5131814;27;42355;-84
2023/07/26 09:12:28;;;;;;;1.30;1.00;;;;;;;18.82;56.53;98711.81;5114016;27;41969;-77
2023/07/26 09:14:57;;;;;;;2.23;1.07;;;;;;;18.59;57.09;98707.88;5131090;27;43021;-82
2023/07/26 09:17:38;;;;;;;1.50;1.40;;;;;;;18.40;56.76;98710.63;5114639;27;40065;-80
2023/07/26 09:20:27;;;;;;;1.40;1.30;;;;;;;17.94;57.57;98661.44;5114857;27;41495;-85
2023/07/26 09:23:04;;;;;;;1.40;0.87;;;;;;;18.20;58.42;98720.56;5113367;27;41586;-78
2023/07/26 09:25:34;;;;;;;0.80;0.77;;;;;;;18.11;58.58;98716.94;5128624;27;43271;-78
2023/07/26 09:28:02;;;;;;;0.90;0.90;;;;;;;18.14;57.96;98726.53;5131366;27;40009;-78
2023/07/26 09:30:30;;;;;;;0.73;0.67;;;;;;;18.18;57.92;98719.88;5114068;27;41784;-79
2023/07/26 09:32:57;;;;;;;1.87;0.73;;;;;;;18.26;57.76;98715.50;5130825;27;43620;-77
2023/07/26 09:35:25;;;;;;;0.97;0.70;;;;;;;18.58;57.56;98708.84;5131724;27;42962;-78
2023/07/26 09:37:53;;;;;;;0.97;0.60;;;;;;;18.95;56.48;98700.72;5114070;27;38987;-82
2023/07/26 09:40:33;;;;;;;0.60;0.60;;;;;;;19.50;55.57;98724.75;5131428;27;41873;-79
2023/07/26 09:43:02;;;;;;;0.70;0.70;;;;;;;19.84;54.97;98730.19;5114641;27;42805;-77
2023/07/26 09:45:31;;;;;;;0.60;0.60;;;;;;;20.17;53.46;98720.50;5132986;27;42584;-76
2023/07/26 09:48:09;;;;;;;0.57;0.50;;;;;;;20.84;51.99;98727.72;5114392;27;38886;-77
2023/07/26 09:50:37;;;;;;;0.30;0.30;;;;;;;21.33;51.78;98725.97;5130349;27;42407;-80
2023/07/26 09:53:05;;;;;;;1.40;0.50;;;;;;;21.60;50.37;98738.28;5116016;27;41783;-79
2023/07/26 09:55:35;;;;;;;0.83;0.40;;;;;;;21.73;49.51;98738.63;5136161;27;43273;-85
2023/07/26 09:58:43;;;;;;;0.50;0.50;;;;;;;21.51;49.56;98680.03;5134852;27;40018;-87
2023/07/26 10:01:13;;;;;;;0.53;0.53;;;;;;;21.83;49.07;98706.94;5118424;27;42098;-92
2023/07/26 10:03:46;;;;;;;0.40;0.40;;;;;;;22.03;47.76;98745.19;5118323;27;41645;-86
2023/07/26 10:06:36;;;;;;;0.33;0.33;;;;;;;22.15;48.69;98726.78;5118449;27;41218;-89
2023/07/26 10:12:47;;;;;;;0.40;0.40;;;;;;;22.54;47.59;98722.28;5116315;27;40572;-80
2023/07/26 10:15:17;;;;;;;0.40;0.40;;;;;;;22.88;47.00;98721.97;5117339;27;41838;-79
2023/07/26 10:17:48;;;;;;;0.50;0.50;;;;;;;23.02;45.00;98725.78;5135294;27;42246;-80
2023/07/26 10:20:16;;;;;;;0.40;0.40;;;;;;;23.11;45.68;98731.97;5132734;27;40131;-83
2023/07/26 10:25:48;;;;;;;0.60;0.40;;;;;;;23.07;45.16;98709.03;5117364;27;42052;-82
2023/07/26 10:28:19;;;;;;;0.50;0.40;;;;;;;23.28;44.60;98734.38;5117000;27;43018;-81
2023/07/26 10:30:47;;;;;;;0.70;0.50;;;;;;;23.23;44.66;98707.06;5117443;27;41679;-81
2023/07/26 10:33:15;;;;;;;1.87;0.40;;;;;;;23.58;44.99;98727.28;5133885;27;40625;-80
2023/07/26 10:35:43;;;;;;;0.40;0.40;;;;;;;23.85;44.21;98704.22;5117712;27;41757;-79
2023/07/26 10:38:13;;;;;;;0.60;0.60;;;;;;;24.60;43.66;98728.44;5136023;27;42892;-81
2023/07/26 10:40:41;;;;;;;0.90;0.73;;;;;;;25.26;41.80;98718.41;5120118;27;39304;-79
2023/07/26 10:43:40;;;;;;;0.77;0.77;;;;;;;27.04;39.43;98743.34;5151439;27;41795;-79
2023/07/26 10:46:10;;;;;;;2.27;1.00;;;;;;;28.45;37.42;98755.84;5140645;27;43031;-80
2023/07/26 10:48:39;;;;;;;1.27;0.97;;;;;;;28.41;36.83;98750.00;5117671;27;42380;-82
2023/07/26 10:51:23;;;;;;;1.13;0.90;;;;;;;28.04;37.78;98748.78;5117279;27;39491;-83
2023/07/26 10:54:08;;;;;;;1.20;0.83;;;;;;;27.72;38.87;98744.13;5118031;27;40896;-87
2023/07/26 10:56:36;;;;;;;1.20;0.93;;;;;;;27.50;37.64;98741.56;5117364;27;42011;-85
2023/07/26 10:59:27;;;;;;;1.10;0.90;;;;;;;27.55;38.24;98716.47;5116634;27;40857;-78
2023/07/26 11:02:07;;;;;;;1.47;1.10;;;;;;;27.85;37.75;98690.56;5117520;27;40017;-85
2023/07/26 11:04:43;;;;;;;1.70;1.27;;;;;;;28.22;37.22;98694.50;5116873;27;40827;-82
2023/07/26 11:07:12;;;;;;;1.37;1.10;;;;;;;28.81;36.26;98747.19;5117176;27;41723;-77
2023/07/26 11:09:42;;;;;;;1.37;1.27;;;;;;;29.08;36.05;98737.84;5133060;27;41371;-77
2023/07/26 11:12:13;;;;;;;1.57;1.00;;;;;;;29.46;36.26;98747.94;5132981;27;39586;-78
2023/07/26 11:14:43;;;;;;;1.90;1.40;;;;;;;29.40;35.18;98743.38;5132717;27;41754;-76
2023/07/26 11:17:14;;;;;;;1.50;1.40;;;;;;;29.58;34.55;98744.28;5133101;27;42082;-76
2023/07/26 11:19:45;;;;;;;1.83;1.20;;;;;;;29.23;34.48;98743.84;5132690;27;42401;-77
2023/07/26 11:22:13;;;;;;;2.00;1.70;;;;;;;29.24;34.52;98744.69;5133638;27;40124;-76
2023/07/26 11:24:41;;;;;;;1.43;1.33;;;;;;;29.11;34.22;98744.75;5115600;27;41788;-77
2023/07/26 11:27:08;;;;;;;2.30;1.40;;;;;;;28.74;35.49;98710.91;5132804;27;42941;-77
2023/07/26 11:29:36;;;;;;;4.03;1.90;;;;;;;28.78;34.23;98729.41;5115693;27;42291;-78
2023/07/26 11:32:06;;;;;;;1.37;1.17;;;;;;;28.41;34.51;98727.38;5133499;27;40210;-83
2023/07/26 11:34:34;;;;;;;2.20;1.13;;;;;;;27.97;34.38;98689.91;5134761;27;42121;-83
2023/07/26 11:37:08;;;;;;;2.77;1.50;;;;;;;27.95;34.90;98722.78;5116490;27;41912;-84
2023/07/26 11:39:38;;;;;;;1.87;1.40;;;;;;;27.72;34.48;98727.81;5134308;27;42770;-77
2023/07/26 11:42:08;;;;;;;2.20;1.20;;;;;;;27.48;35.45;98711.03;5135689;27;40633;-84
2023/07/26 11:44:36;;;;;;;2.20;1.30;;;;;;;27.59;36.08;98686.97;5116848;27;41537;-88
2023/07/26 11:47:06;;;;;;;3.60;1.33;;;;;;;28.09;35.57;98719.00;5116609;27;41633;-81
2023/07/26 11:49:38;;;;;;;1.53;1.30;;;;;;;28.06;35.62;98705.00;5134764;27;42611;-78
2023/07/26 11:52:14;;;;;;;2.07;1.17;;;;;;;27.84;35.31;98715.25;5133936;27;39859;-81
2023/07/26 11:54:58;;;;;;;1.40;1.30;;;;;;;27.36;36.30;98636.53;5117288;27;41110;-84
2023/07/26 11:57:27;;;;;;;2.57;1.87;;;;;;;27.70;34.96;98654.53;5116781;27;41701;-81
2023/07/26 11:59:56;;;;;;;1.47;1.33;;;;;;;28.09;35.77;98670.00;5117294;27;42764;-82
2023/07/26 12:02:26;;;;;;;1.30;1.20;;;;;;;29.06;34.88;98706.38;5116810;27;39622;-78